createdAt,value
2022-09-15T00:01:05.363Z,13.30
2022-09-15T00:03:33.090Z,13.30
2022-09-15T00:06:00.414Z,13.30
2022-09-15T00:08:27.789Z,13.30
2022-09-15T00:10:58.680Z,13.30
2022-09-15T00:13:26.436Z,13.30
2022-09-15T00:15:54.935Z,13.30
2022-09-15T00:18:22.437Z,13.30
2022-09-15T00:20:50.061Z,13.30
2022-09-15T00:23:18.033Z,13.30
2022-09-15T00:25:48.927Z,13.30
2022-09-15T00:28:19.582Z,13.40
2022-09-15T00:30:50.605Z,13.40
2022-09-15T00:33:20.104Z,13.40
2022-09-15T00:35:50.194Z,13.40
2022-09-15T00:38:18.946Z,13.40
2022-09-15T00:40:51.346Z,13.40
2022-09-15T00:43:22.266Z,13.40
2022-09-15T00:45:50.884Z,13.50
2022-09-15T00:48:22.288Z,13.40
2022-09-15T00:50:54.384Z,13.50
2022-09-15T00:53:23.779Z,13.50
2022-09-15T00:55:52.055Z,13.50
2022-09-15T00:58:27.501Z,13.50
2022-09-15T01:00:59.240Z,13.40
2022-09-15T01:03:30.645Z,13.40
2022-09-15T01:06:23.527Z,13.40
2022-09-15T01:09:08.974Z,13.40
2022-09-15T01:11:36.805Z,13.50
2022-09-15T01:14:04.722Z,13.50
2022-09-15T01:16:47.275Z,13.50
2022-09-15T01:19:38.897Z,13.50
2022-09-15T01:22:32.773Z,13.50
2022-09-15T01:25:10.268Z,13.50
2022-09-15T01:27:56.232Z,13.40
2022-09-15T01:30:25.038Z,13.50
2022-09-15T01:33:05.500Z,13.60
2022-09-15T01:35:42.565Z,13.60
2022-09-15T01:38:28.813Z,13.60
2022-09-15T01:41:18.730Z,13.60
2022-09-15T01:44:03.958Z,13.60
2022-09-15T01:46:36.260Z,13.70
2022-09-15T01:49:06.958Z,13.70
2022-09-15T01:51:36.468Z,13.60
2022-09-15T01:54:06.891Z,13.70
2022-09-15T01:56:37.043Z,13.60
2022-09-15T01:59:04.705Z,13.30
2022-09-15T02:01:40.941Z,13.20
2022-09-15T02:04:28.066Z,13.20
2022-09-15T02:07:11.711Z,13.10
2022-09-15T02:09:47.329Z,13.10
2022-09-15T02:12:26.107Z,12.90
2022-09-15T02:15:03.613Z,12.90
2022-09-15T02:17:38.335Z,12.80
2022-09-15T02:20:20.751Z,12.90
2022-09-15T02:22:54.060Z,13.00
2022-09-15T02:25:29.153Z,13.40
2022-09-15T02:30:47.424Z,13.20
2022-09-15T02:33:19.995Z,13.20
2022-09-15T02:35:48.037Z,13.20
2022-09-15T02:38:15.854Z,13.20
2022-09-15T02:40:44.922Z,13.10
2022-09-15T02:43:16.163Z,13.10
2022-09-15T02:45:44.132Z,13.00
2022-09-15T02:48:11.808Z,13.20
2022-09-15T02:50:39.619Z,13.30
2022-09-15T02:53:07.852Z,13.10
2022-09-15T02:55:35.506Z,13.00
2022-09-15T02:58:02.909Z,13.00
2022-09-15T03:00:31.316Z,13.00
2022-09-15T03:02:58.878Z,13.10
2022-09-15T03:05:28.749Z,13.10
2022-09-15T03:07:57.059Z,13.10
2022-09-15T03:10:25.131Z,13.00
2022-09-15T03:12:54.526Z,13.10
2022-09-15T03:15:24.053Z,13.30
2022-09-15T03:17:52.261Z,13.00
2022-09-15T03:20:23.626Z,12.90
2022-09-15T03:22:51.259Z,13.10
2022-09-15T03:25:19.835Z,13.30
2022-09-15T03:27:47.702Z,13.20
2022-09-15T03:30:15.276Z,12.90
2022-09-15T03:32:42.723Z,12.90
2022-09-15T03:35:10.200Z,12.90
2022-09-15T03:37:37.720Z,13.10
2022-09-15T03:40:06.064Z,13.00
2022-09-15T03:42:33.555Z,12.80
2022-09-15T03:45:00.955Z,12.80
2022-09-15T03:47:28.274Z,12.90
2022-09-15T03:49:55.642Z,12.90
2022-09-15T03:52:22.984Z,12.70
2022-09-15T03:54:50.592Z,12.70
2022-09-15T03:57:17.989Z,12.80
2022-09-15T03:59:45.465Z,12.70
2022-09-15T04:02:13.041Z,12.70
2022-09-15T04:04:41.254Z,12.60
2022-09-15T04:07:09.233Z,12.60
2022-09-15T04:09:37.560Z,13.00
2022-09-15T04:12:06.392Z,12.90
2022-09-15T04:14:33.754Z,12.80
2022-09-15T04:17:01.298Z,12.90
2022-09-15T04:19:29.368Z,12.80
2022-09-15T04:21:56.734Z,12.80
2022-09-15T04:24:24.055Z,12.70
2022-09-15T04:26:51.480Z,12.70
2022-09-15T04:29:19.800Z,12.70
2022-09-15T04:31:47.361Z,12.70
2022-09-15T04:34:16.149Z,12.70
2022-09-15T04:36:43.877Z,12.60
2022-09-15T04:39:11.657Z,12.60
2022-09-15T04:41:39.052Z,12.60
2022-09-15T04:44:06.599Z,12.70
2022-09-15T04:46:34.439Z,12.70
2022-09-15T04:49:02.014Z,12.60
2022-09-15T04:51:29.631Z,12.60
2022-09-15T04:53:57.973Z,12.70
2022-09-15T04:56:27.163Z,12.50
2022-09-15T04:59:02.437Z,12.60
2022-09-15T05:01:34.386Z,12.80
2022-09-15T05:04:04.158Z,12.80
2022-09-15T05:06:32.365Z,12.50
2022-09-15T05:09:00.225Z,12.60
2022-09-15T05:11:28.673Z,12.60
2022-09-15T05:13:56.126Z,12.80
2022-09-15T05:16:27.645Z,12.60
2022-09-15T05:18:57.250Z,12.70
2022-09-15T05:21:25.278Z,12.60
2022-09-15T05:23:54.138Z,12.50
2022-09-15T05:26:25.528Z,12.70
2022-09-15T05:28:53.977Z,12.70
2022-09-15T05:31:31.357Z,12.60
2022-09-15T05:34:01.746Z,12.60
2022-09-15T05:36:30.092Z,12.50
2022-09-15T05:38:58.265Z,12.80
2022-09-15T05:41:27.080Z,12.60
2022-09-15T05:43:57.208Z,12.50
2022-09-15T05:46:26.537Z,12.60
2022-09-15T05:48:55.747Z,12.50
2022-09-15T05:51:23.534Z,12.60
2022-09-15T05:53:51.166Z,12.70
2022-09-15T05:56:19.006Z,12.40
2022-09-15T05:58:48.273Z,12.50
2022-09-15T06:01:19.135Z,12.50
2022-09-15T06:03:47.302Z,12.50
2022-09-15T06:06:15.309Z,12.50
2022-09-15T06:08:48.213Z,12.60
2022-09-15T06:11:18.662Z,12.40
2022-09-15T06:13:47.106Z,12.60
2022-09-15T06:16:19.463Z,12.80
2022-09-15T06:18:48.670Z,12.60
2022-09-15T06:21:20.441Z,12.60
2022-09-15T06:23:52.568Z,12.40
2022-09-15T06:26:20.435Z,12.60
2022-09-15T06:28:50.990Z,12.50
2022-09-15T06:31:19.483Z,12.60
2022-09-15T06:33:51.393Z,12.50
2022-09-15T06:36:22.954Z,12.60
2022-09-15T06:38:51.839Z,12.50
2022-09-15T06:41:20.461Z,12.50
2022-09-15T06:43:49.377Z,12.60
2022-09-15T06:46:19.692Z,12.50
2022-09-15T06:48:53.722Z,12.60
2022-09-15T06:51:25.196Z,12.80
2022-09-15T06:53:56.577Z,12.90
2022-09-15T06:56:24.509Z,12.80
2022-09-15T06:58:52.395Z,12.90
2022-09-15T07:01:23.390Z,12.70
2022-09-15T07:03:51.059Z,12.90
2022-09-15T07:06:19.109Z,12.70
2022-09-15T07:08:47.538Z,12.80
2022-09-15T07:11:15.084Z,12.80
2022-09-15T07:13:42.842Z,13.10
2022-09-15T07:16:13.076Z,12.90
2022-09-15T07:18:43.231Z,13.00
2022-09-15T07:21:14.912Z,12.70
2022-09-15T07:23:43.247Z,12.80
2022-09-15T07:26:16.426Z,12.70
2022-09-15T07:28:44.794Z,12.80
2022-09-15T07:31:15.666Z,12.80
2022-09-15T07:33:43.422Z,12.70
2022-09-15T07:36:11.865Z,12.70
2022-09-15T07:38:42.258Z,12.80
2022-09-15T07:41:15.100Z,12.90
2022-09-15T07:43:51.966Z,12.60
2022-09-15T07:46:21.054Z,12.80
2022-09-15T07:48:50.145Z,12.50
2022-09-15T07:51:18.452Z,12.70
2022-09-15T07:53:48.743Z,12.80
2022-09-15T07:56:18.689Z,12.60
2022-09-15T07:58:47.322Z,12.80
2022-09-15T08:01:16.135Z,12.80
2022-09-15T08:03:49.002Z,12.70
2022-09-15T08:06:20.732Z,12.80
2022-09-15T08:08:49.262Z,12.60
2022-09-15T08:11:19.306Z,12.60
2022-09-15T08:13:48.152Z,12.50
2022-09-15T08:16:18.381Z,12.70
2022-09-15T08:18:46.308Z,12.60
2022-09-15T08:21:17.886Z,12.50
2022-09-15T08:23:45.353Z,12.60
2022-09-15T08:26:14.651Z,12.60
2022-09-15T08:28:43.031Z,12.60
2022-09-15T08:31:14.059Z,12.60
2022-09-15T08:33:45.485Z,12.70
2022-09-15T08:36:13.695Z,12.80
2022-09-15T08:38:43.090Z,12.60
2022-09-15T08:41:28.138Z,12.70
2022-09-15T08:44:05.085Z,12.60
2022-09-15T08:46:38.556Z,13.30
2022-09-15T08:49:26.824Z,12.90
2022-09-15T08:52:08.127Z,13.00
2022-09-15T08:54:35.539Z,12.50
2022-09-15T08:57:04.823Z,12.60
2022-09-15T08:59:35.961Z,12.80
2022-09-15T09:02:24.783Z,12.70
2022-09-15T09:05:07.863Z,12.60
2022-09-15T09:08:00.923Z,12.70
2022-09-15T09:10:43.975Z,12.80
2022-09-15T09:13:35.420Z,12.50
2022-09-15T09:16:30.468Z,12.60
2022-09-15T09:19:20.176Z,12.70
2022-09-15T09:22:07.737Z,12.70
2022-09-15T09:24:44.647Z,12.80
2022-09-15T09:27:15.137Z,12.90
2022-09-15T09:29:49.781Z,12.70
2022-09-15T09:32:25.420Z,12.90
2022-09-15T09:35:04.273Z,12.80
2022-09-15T09:37:33.046Z,12.90
2022-09-15T09:40:01.313Z,13.00
2022-09-15T09:42:34.996Z,13.00
2022-09-15T09:45:05.226Z,13.30
2022-09-15T09:47:35.194Z,12.90
2022-09-15T09:50:02.797Z,13.00
2022-09-15T09:52:38.098Z,13.10
2022-09-15T09:55:23.419Z,12.90
2022-09-15T09:57:51.424Z,13.10
2022-09-15T10:00:37.219Z,13.40
2022-09-15T10:03:21.916Z,13.30
2022-09-15T10:06:12.458Z,13.20
2022-09-15T10:08:55.061Z,13.20
2022-09-15T10:11:38.816Z,13.50
2022-09-15T10:14:07.090Z,13.70
2022-09-15T10:16:35.385Z,13.30
2022-09-15T10:19:02.940Z,13.30
2022-09-15T10:21:30.513Z,13.40
2022-09-15T10:23:57.981Z,13.20
2022-09-15T10:26:34.938Z,13.50
2022-09-15T10:29:18.830Z,13.30
2022-09-15T10:31:46.898Z,13.30
2022-09-15T10:34:31.259Z,13.40
2022-09-15T10:37:13.387Z,13.50
2022-09-15T10:39:54.229Z,13.40
2022-09-15T10:42:38.560Z,13.20
2022-09-15T10:45:32.341Z,13.30
2022-09-15T10:48:14.903Z,13.50
2022-09-15T10:51:16.128Z,13.40
2022-09-15T10:53:57.869Z,13.20
2022-09-15T10:56:30.860Z,13.30
2022-09-15T10:59:30.827Z,13.10
2022-09-15T11:02:24.090Z,13.30
2022-09-15T11:05:23.023Z,13.30
2022-09-15T11:08:26.058Z,13.20
2022-09-15T11:11:06.225Z,13.20
2022-09-15T11:13:58.838Z,13.00
2022-09-15T11:16:40.989Z,13.00
2022-09-15T11:19:24.560Z,13.10
2022-09-15T11:21:58.369Z,13.10
2022-09-15T11:24:39.552Z,13.10
2022-09-15T11:27:25.945Z,13.20
2022-09-15T11:30:17.691Z,13.10
2022-09-15T11:33:07.315Z,13.00
2022-09-15T11:35:55.894Z,12.90
2022-09-15T11:38:48.590Z,12.90
2022-09-15T11:41:42.603Z,12.80
2022-09-15T11:44:28.037Z,12.80
2022-09-15T11:47:16.515Z,12.80
2022-09-15T11:50:03.848Z,12.80
2022-09-15T11:53:02.208Z,12.90
2022-09-15T11:55:39.858Z,12.90
2022-09-15T11:58:29.207Z,12.80
2022-09-15T12:01:07.283Z,12.90
2022-09-15T12:04:05.718Z,13.10
2022-09-15T12:06:45.946Z,13.10
2022-09-15T12:09:17.907Z,13.30
2022-09-15T12:11:52.086Z,13.10
2022-09-15T12:14:36.143Z,13.30
2022-09-15T12:17:06.397Z,13.70
2022-09-15T12:19:49.924Z,14.00
2022-09-15T12:22:36.874Z,15.00
2022-09-15T12:25:13.145Z,15.10
2022-09-15T12:27:40.661Z,14.40
2022-09-15T12:30:43.549Z,13.90
2022-09-15T12:33:42.320Z,13.60
2022-09-15T12:36:41.390Z,14.00
2022-09-15T12:39:38.341Z,14.20
2022-09-15T12:42:15.211Z,14.20
2022-09-15T12:45:01.362Z,14.40
2022-09-15T12:47:54.847Z,14.10
2022-09-15T12:50:29.593Z,14.40
2022-09-15T12:53:03.141Z,14.10
2022-09-15T12:55:35.379Z,14.10
2022-09-15T12:58:21.095Z,14.00
2022-09-15T13:01:17.241Z,13.80
2022-09-15T13:04:13.025Z,13.90
2022-09-15T13:06:40.510Z,13.80
2022-09-15T13:09:28.324Z,13.70
2022-09-15T13:11:57.085Z,13.60
2022-09-15T13:14:34.561Z,13.50
2022-09-15T13:17:20.252Z,13.40
2022-09-15T13:19:50.918Z,13.30
2022-09-15T13:22:30.328Z,13.40
2022-09-15T13:25:16.963Z,13.50
2022-09-15T13:27:49.877Z,13.30
2022-09-15T13:30:48.370Z,13.10
2022-09-15T13:40:02.724Z,13.40
2022-09-15T13:42:57.625Z,13.30
2022-09-15T13:45:48.042Z,13.40
2022-09-15T13:48:35.966Z,13.40
2022-09-15T13:51:12.867Z,13.40
2022-09-15T13:53:47.685Z,13.40
2022-09-15T13:56:32.657Z,13.50
2022-09-15T13:59:10.156Z,13.50
2022-09-15T14:01:40.554Z,13.60
2022-09-15T14:04:16.950Z,13.60
2022-09-15T14:06:47.257Z,13.50
2022-09-15T14:09:20.314Z,13.60
2022-09-15T14:11:51.750Z,13.50
2022-09-15T14:14:36.988Z,13.50
2022-09-15T14:17:04.845Z,13.60
2022-09-15T14:19:38.373Z,13.60
2022-09-15T14:22:28.142Z,13.70
2022-09-15T14:24:58.810Z,13.60
2022-09-15T14:27:29.695Z,13.60
2022-09-15T14:29:58.964Z,13.60
2022-09-15T14:32:28.508Z,13.60
2022-09-15T14:35:04.295Z,13.60
2022-09-15T14:37:33.100Z,13.60
2022-09-15T14:40:02.395Z,13.70
2022-09-15T14:42:35.701Z,13.70
2022-09-15T14:48:14.458Z,13.70
2022-09-15T14:50:43.870Z,13.80
2022-09-15T14:53:18.089Z,13.80
2022-09-15T14:56:08.209Z,14.30
2022-09-15T14:58:44.889Z,14.80
2022-09-15T15:01:20.230Z,14.10
2022-09-15T15:04:10.153Z,14.20
2022-09-15T15:06:49.479Z,15.90
2022-09-15T15:09:30.065Z,16.10
2022-09-15T15:12:02.617Z,16.00
2022-09-15T15:14:30.838Z,14.30
2022-09-15T15:17:02.551Z,14.00
2022-09-15T15:19:33.368Z,14.00
2022-09-15T15:22:20.261Z,14.00
2022-09-15T15:24:51.467Z,13.90
2022-09-15T15:27:40.336Z,14.30
2022-09-15T15:30:27.034Z,14.90
2022-09-15T15:32:57.670Z,14.50
2022-09-15T15:35:26.221Z,13.80
2022-09-15T15:38:16.774Z,13.60
2022-09-15T15:40:45.946Z,13.60
2022-09-15T15:43:23.704Z,13.50
2022-09-15T15:45:58.548Z,13.30
2022-09-15T15:48:32.831Z,13.30
2022-09-15T15:51:05.695Z,13.30
2022-09-15T15:53:34.569Z,13.20
2022-09-15T15:56:02.276Z,13.10
2022-09-15T15:58:29.865Z,13.10
2022-09-15T16:00:58.001Z,13.00
2022-09-15T16:03:26.127Z,12.90
2022-09-15T16:05:58.991Z,12.90
2022-09-15T16:08:32.984Z,12.80
2022-09-15T16:11:02.740Z,12.90
2022-09-15T16:13:31.370Z,12.80
2022-09-15T16:16:01.481Z,12.70
2022-09-15T16:18:30.082Z,12.70
2022-09-15T16:20:57.928Z,12.70
2022-09-15T16:23:25.603Z,12.60
2022-09-15T16:26:01.291Z,12.50
2022-09-15T16:28:29.816Z,12.40
2022-09-15T16:30:58.724Z,12.50
2022-09-15T16:33:26.854Z,12.70
2022-09-15T16:36:07.190Z,12.70
2022-09-15T16:38:37.299Z,12.60
2022-09-15T16:41:13.610Z,12.50
2022-09-15T16:43:42.276Z,12.50
2022-09-15T16:46:11.948Z,12.50
2022-09-15T16:48:42.274Z,12.60
2022-09-15T16:51:28.789Z,12.60
2022-09-15T16:53:59.646Z,12.60
2022-09-15T16:56:29.037Z,12.50
2022-09-15T16:59:00.561Z,12.50
2022-09-15T17:01:30.155Z,12.50
2022-09-15T17:03:59.176Z,12.40
2022-09-15T17:06:28.035Z,12.30
2022-09-15T17:08:56.910Z,12.30
2022-09-15T17:11:29.776Z,12.30
2022-09-15T17:13:58.532Z,12.30
2022-09-15T17:16:29.167Z,12.20
2022-09-15T17:18:58.744Z,12.20
2022-09-15T17:21:28.522Z,12.20
2022-09-15T17:23:57.488Z,12.20
2022-09-15T17:26:30.467Z,12.20
2022-09-15T17:29:00.324Z,12.20
2022-09-15T17:31:28.938Z,12.20
2022-09-15T17:33:57.491Z,12.20
2022-09-15T17:36:26.989Z,12.20
2022-09-15T17:38:56.050Z,12.20
2022-09-15T17:41:24.968Z,12.10
2022-09-15T17:43:53.628Z,11.90
2022-09-15T17:46:22.579Z,11.80
2022-09-15T17:48:51.504Z,11.60
2022-09-15T17:51:20.952Z,11.60
2022-09-15T17:53:49.881Z,11.50
2022-09-15T17:56:19.288Z,11.60
2022-09-15T17:58:48.745Z,11.50
2022-09-15T18:01:18.551Z,11.00
2022-09-15T18:03:48.389Z,11.60
2022-09-15T18:06:18.956Z,11.70
2022-09-15T18:08:49.365Z,11.70
2022-09-15T18:11:19.916Z,11.50
2022-09-15T18:13:50.160Z,11.70
2022-09-15T18:16:19.927Z,11.70
2022-09-15T18:18:50.365Z,11.50
2022-09-15T18:21:29.313Z,11.40
2022-09-15T18:23:59.778Z,11.50
2022-09-15T18:26:30.572Z,11.50
2022-09-15T18:29:07.970Z,11.50
2022-09-15T18:31:38.191Z,11.30
2022-09-15T18:34:08.956Z,11.10
2022-09-15T18:36:39.234Z,11.00
2022-09-15T18:39:10.805Z,11.10
2022-09-15T18:41:41.301Z,11.20
2022-09-15T18:44:10.249Z,11.20
2022-09-15T18:46:40.233Z,11.10
2022-09-15T18:49:10.641Z,11.20
2022-09-15T18:51:51.517Z,11.10
2022-09-15T18:54:21.944Z,11.20
2022-09-15T18:56:52.958Z,11.20
2022-09-15T18:59:23.636Z,11.30
2022-09-15T19:01:54.476Z,11.10
2022-09-15T19:04:27.289Z,11.00
2022-09-15T19:07:00.217Z,10.90
2022-09-15T19:09:30.212Z,10.80
2022-09-15T19:12:00.141Z,10.90
2022-09-15T19:14:31.515Z,10.90
2022-09-15T19:17:01.875Z,11.00
2022-09-15T19:19:32.185Z,10.90
2022-09-15T19:22:02.521Z,10.90
2022-09-15T19:24:35.365Z,10.80
2022-09-15T19:27:07.736Z,10.80
2022-09-15T19:29:39.886Z,10.90
2022-09-15T19:32:13.984Z,10.80
2022-09-15T19:34:44.344Z,10.70
2022-09-15T19:37:18.863Z,10.70
2022-09-15T19:39:51.907Z,10.60
2022-09-15T19:42:23.233Z,10.60
2022-09-15T19:44:55.635Z,10.50
2022-09-15T19:47:26.393Z,10.60
2022-09-15T19:49:59.123Z,10.60
2022-09-15T19:52:28.936Z,10.70
2022-09-15T19:55:00.122Z,10.80
2022-09-15T19:57:32.026Z,10.80
2022-09-15T20:00:01.345Z,10.80
2022-09-15T20:02:33.738Z,10.80
2022-09-15T20:05:02.807Z,10.80
2022-09-15T20:07:33.435Z,10.80
2022-09-15T20:10:02.665Z,10.60
2022-09-15T20:12:31.836Z,10.60
2022-09-15T20:15:00.421Z,10.70
2022-09-15T20:17:29.308Z,10.60
2022-09-15T20:19:58.209Z,10.60
2022-09-15T20:22:27.320Z,10.60
2022-09-15T20:24:56.860Z,10.50
2022-09-15T20:27:25.806Z,10.60
2022-09-15T20:29:54.002Z,10.60
2022-09-15T20:32:28.040Z,10.70
2022-09-15T20:34:56.726Z,10.70
2022-09-15T20:37:24.801Z,10.60
2022-09-15T20:39:53.177Z,10.60
2022-09-15T20:42:21.466Z,10.60
2022-09-15T20:44:49.345Z,10.60
2022-09-15T20:47:16.989Z,10.60
2022-09-15T20:49:45.376Z,10.60
2022-09-15T20:52:13.946Z,10.50
2022-09-15T20:54:42.410Z,10.50
2022-09-15T20:57:10.316Z,10.50
2022-09-15T20:59:38.027Z,10.50
2022-09-15T21:02:10.052Z,10.50
2022-09-15T21:04:37.754Z,10.40
2022-09-15T21:07:05.336Z,10.50
2022-09-15T21:09:33.258Z,10.60
2022-09-15T21:12:01.086Z,10.60
2022-09-15T21:14:28.526Z,10.60
2022-09-15T21:16:56.395Z,10.60
2022-09-15T21:19:24.302Z,10.60
2022-09-15T21:21:52.260Z,10.70
2022-09-15T21:24:21.484Z,10.70
2022-09-15T21:27:04.242Z,10.60
2022-09-15T21:29:31.792Z,10.60
2022-09-15T21:31:59.296Z,10.70
2022-09-15T21:34:29.270Z,10.60
2022-09-15T21:36:57.056Z,10.60
2022-09-15T21:39:24.999Z,10.60
2022-09-15T21:41:52.760Z,10.50
2022-09-15T21:44:20.278Z,10.40
2022-09-15T21:46:48.720Z,10.40
2022-09-15T21:49:18.227Z,10.30
2022-09-15T21:51:46.067Z,10.30
2022-09-15T21:54:14.734Z,10.30
2022-09-15T21:56:42.494Z,10.40
2022-09-15T21:59:11.121Z,10.40
2022-09-15T22:01:40.436Z,10.40
2022-09-15T22:04:09.012Z,10.40
2022-09-15T22:06:40.676Z,10.40
2022-09-15T22:09:11.348Z,10.40
2022-09-15T22:11:39.332Z,10.30
2022-09-15T22:14:08.478Z,10.50
2022-09-15T22:16:38.684Z,10.40
2022-09-15T22:19:07.568Z,10.40
2022-09-15T22:21:37.237Z,10.40
2022-09-15T22:24:07.150Z,10.50
2022-09-15T22:26:37.630Z,10.40
2022-09-15T22:29:05.943Z,10.50
2022-09-15T22:31:34.236Z,10.40
2022-09-15T22:34:01.912Z,10.40
2022-09-15T22:36:30.733Z,10.40
2022-09-15T22:39:07.077Z,10.30
2022-09-15T22:41:36.797Z,10.30
2022-09-15T22:44:05.786Z,10.30
2022-09-15T22:46:33.281Z,10.10
2022-09-15T22:49:01.232Z,10.20
2022-09-15T22:51:29.209Z,10.20
2022-09-15T22:53:57.526Z,10.20
2022-09-15T22:56:26.635Z,10.20
2022-09-15T22:58:55.547Z,10.20
2022-09-15T23:01:27.104Z,10.20
2022-09-15T23:03:58.563Z,10.20
2022-09-15T23:06:28.432Z,10.10
2022-09-15T23:08:58.368Z,10.10
2022-09-15T23:11:27.390Z,10.00
2022-09-15T23:13:56.077Z,10.10
2022-09-15T23:16:25.062Z,10.00
2022-09-15T23:18:53.800Z,10.00
2022-09-15T23:21:21.737Z,10.00
2022-09-15T23:23:49.877Z,10.00
2022-09-15T23:26:19.359Z,10.00
2022-09-15T23:28:47.167Z,10.00
2022-09-15T23:31:15.022Z,10.00
2022-09-15T23:33:43.231Z,9.80
2022-09-15T23:36:14.700Z,9.70
2022-09-15T23:38:45.184Z,9.80
2022-09-15T23:41:13.809Z,9.70
2022-09-15T23:43:41.919Z,9.80
2022-09-15T23:46:09.537Z,9.80
2022-09-15T23:48:37.498Z,9.80
2022-09-15T23:51:05.185Z,9.90
2022-09-15T23:53:32.835Z,9.90
2022-09-15T23:56:00.185Z,10.00
2022-09-15T23:58:27.704Z,9.90
